RU-0090 weather

Krasnodar Tsentralny Air Base
Krasnodar, Krasnodar Krai, Russia

Public forecast

Using degrees Celsius for public forecast. Weather courtesy of forecast.io.

METAR (pilot weather report)

Closest report is Krasnodar Pashkovsky International Airport, 9.9 nm (18.3 km) ESE. Retrieved 2019/08/25 04:30 UTC (0 seconds ago):

URKK 250430Z 31003MPS CAVOK 24/16 Q1015 R23L/CLRD70 NOSIG RMK QFE757

TAF (pilot weather forecast)

Closest forecast is Krasnodar Pashkovsky International Airport, 9.9 nm (18.3 km) ESE. Retrieved 2019/08/25 03:24 UTC (54 minutes ago):

TAF URKK 250151Z 2503/2603 01003G08MPS 9999 SCT030CB PROB40 TEMPO 2503/2515 VRB07G14MPS 3100 -TSRA SCT011 BKN020CB